Terminal Aerodrome Forecast
Issued by NWS

Home | Current Version | Previous Version | Text Only | Print | Product List | Glossary On
Versions: 1 2 3 4 5 6 7 8 9 10 11 12 13 14 15 16 17 18 19 20 21 22 23 24 25 26 27 28 29 30 31 32 33 34 35 36 37 38 39 40 41 42 43 44
000
FTPA31 PHFO 230907 AAA
TAFMDY
TAF AMD
PMDY 230907Z 2309/2406 18012KT P6SM VCSH SCT020 BKN035
     FM231100 21014G24KT P6SM VCSH SCT010 BKN020 OVC100
     FM240100 22015G25KT 4SM -RA BKN008 OVC020
      TEMPO 2401/2405 2SM RA BR OVC006=

USA.gov is the U.S. government's official web portal to all federal, state and local government web resources and services.